Time;durP1;ratioP1;P1;durP2;ratioP2;P2;SDS_P1;SDS_P2;PMS_P1;PMS_P2;Temp;Humidity;BMP_temperature;BMP_pressure;BME280_temperature;BME280_humidity;BME280_pressure;Samples;Min_cycle;Max_cycle;Signal;HPM_P1;HPM_P2
2022/01/07 00:02:21;;;;;;;6.20;4.18;;;;;;;2.12;65.98;94832.47;5093329;28;20023;-72
2022/01/07 00:04:47;;;;;;;7.15;4.22;;;;;;;1.90;66.65;94813.94;5110428;28;20040;-72
2022/01/07 00:07:12;;;;;;;6.80;4.78;;;;;;;2.13;66.61;94846.94;5093349;28;20028;-72
2022/01/07 00:09:38;;;;;;;6.53;4.10;;;;;;;2.08;66.84;94833.50;5111810;28;20031;-72
2022/01/07 00:12:04;;;;;;;6.22;4.15;;;;;;;2.22;66.38;94845.66;5093347;28;20534;-72
2022/01/07 00:14:30;;;;;;;7.95;4.57;;;;;;;2.32;66.19;94849.41;5093336;28;20043;-72
2022/01/07 00:16:55;;;;;;;5.47;3.88;;;;;;;2.26;66.07;94856.56;5093320;28;20023;-73
2022/01/07 00:19:21;;;;;;;5.20;3.78;;;;;;;2.18;65.84;94844.16;5111585;28;20081;-72
2022/01/07 00:21:46;;;;;;;5.60;3.78;;;;;;;2.15;65.54;94845.13;5110167;28;20023;-72
2022/01/07 00:24:11;;;;;;;5.28;3.80;;;;;;;2.14;66.26;94853.72;5093072;28;20039;-72
2022/01/07 00:26:37;;;;;;;4.97;3.60;;;;;;;2.22;65.93;94854.16;5092724;28;20023;-72
2022/01/07 00:29:03;;;;;;;4.80;3.72;;;;;;;2.18;66.83;94862.09;5110055;28;20043;-72
2022/01/07 00:31:28;;;;;;;6.47;4.18;;;;;;;2.29;65.89;94856.44;5093116;28;20055;-72
2022/01/07 00:33:53;;;;;;;12.15;5.35;;;;;;;1.99;66.34;94821.16;5110022;28;20040;-72
2022/01/07 00:36:19;;;;;;;9.98;5.25;;;;;;;1.90;66.25;94811.38;5110047;28;20027;-72
2022/01/07 00:38:44;;;;;;;5.45;4.20;;;;;;;2.15;66.17;94875.06;5092702;28;20035;-73
2022/01/07 00:41:10;;;;;;;10.82;5.53;;;;;;;2.23;66.22;94865.28;5109933;28;20028;-72
2022/01/07 00:43:35;;;;;;;23.35;11.80;;;;;;;2.15;66.23;94869.94;5092944;28;20038;-72
2022/01/07 00:46:01;;;;;;;18.90;9.93;;;;;;;2.27;65.39;94874.44;5111139;28;20028;-72
2022/01/07 00:48:26;;;;;;;9.60;5.75;;;;;;;2.15;66.36;94864.81;5112129;28;20080;-72
2022/01/07 00:50:51;;;;;;;7.55;5.45;;;;;;;2.35;65.11;94868.94;5130418;28;20031;-72
2022/01/07 00:53:17;;;;;;;6.15;4.75;;;;;;;2.30;65.97;94878.59;5130267;28;20043;-72
2022/01/07 00:55:42;;;;;;;6.30;4.55;;;;;;;2.15;66.15;94870.75;5130315;28;20031;-72
2022/01/07 00:58:08;;;;;;;6.07;4.07;;;;;;;2.10;66.15;94882.97;5130311;28;20382;-72
2022/01/07 01:00:33;;;;;;;6.22;4.32;;;;;;;2.04;66.03;94872.19;5131654;27;20042;-72
2022/01/07 01:02:59;;;;;;;6.00;4.30;;;;;;;2.06;66.17;94888.31;5130351;28;20043;-72
2022/01/07 01:05:25;;;;;;;6.03;3.95;;;;;;;2.11;66.40;94889.75;5130174;28;20026;-72
2022/01/07 01:07:50;;;;;;;5.28;3.80;;;;;;;2.16;65.78;94874.16;5113054;28;20015;-72
2022/01/07 01:10:17;;;;;;;4.57;3.50;;;;;;;2.15;66.01;94893.81;5113044;28;20027;-72
2022/01/07 01:12:43;;;;;;;7.05;4.60;;;;;;;2.08;66.03;94889.06;5131360;27;20106;-72
2022/01/07 01:15:10;;;;;;;5.47;4.20;;;;;;;2.03;66.32;94894.41;5130113;28;20485;-72
2022/01/07 01:17:35;;;;;;;5.57;4.15;;;;;;;2.00;66.45;94892.00;5130164;28;20110;-72
2022/01/07 01:20:01;;;;;;;5.82;3.63;;;;;;;2.07;65.88;94883.13;5113033;28;20085;-72
2022/01/07 01:22:27;;;;;;;5.07;3.88;;;;;;;1.99;66.33;94890.34;5130082;28;20039;-73
2022/01/07 01:24:52;;;;;;;5.68;4.40;;;;;;;1.98;66.46;94896.38;5113210;28;20043;-72
2022/01/07 01:27:18;;;;;;;6.00;4.10;;;;;;;1.99;66.29;94885.22;5130044;28;20026;-72
2022/01/07 01:29:43;;;;;;;5.55;4.05;;;;;;;1.98;66.36;94888.69;5112708;28;20050;-72
2022/01/07 01:32:08;;;;;;;6.05;4.07;;;;;;;1.96;66.69;94888.75;5131233;27;20023;-72
2022/01/07 01:34:34;;;;;;;6.22;4.07;;;;;;;1.93;66.32;94890.66;5130089;28;20058;-72
2022/01/07 01:36:59;;;;;;;5.47;3.92;;;;;;;1.90;66.53;94890.78;5113382;27;20038;-72
2022/01/07 01:39:25;;;;;;;5.65;4.15;;;;;;;1.81;66.80;94891.22;5133598;27;20027;-72
2022/01/07 01:41:50;;;;;;;6.45;4.30;;;;;;;1.95;66.13;94887.09;5133544;27;20439;-72
2022/01/07 01:44:16;;;;;;;5.88;4.32;;;;;;;1.88;66.82;94893.41;5116154;27;20046;-72
2022/01/07 01:46:41;;;;;;;7.50;4.57;;;;;;;1.81;66.19;94880.97;5095906;28;20057;-72
2022/01/07 01:49:06;;;;;;;5.03;3.90;;;;;;;1.91;66.39;94892.44;5095910;28;20031;-73
2022/01/07 01:51:32;;;;;;;7.15;4.57;;;;;;;1.83;66.72;94884.28;5129973;27;20030;-72
2022/01/07 01:53:58;;;;;;;6.20;4.15;;;;;;;1.87;66.80;94896.06;5095757;28;20036;-72
2022/01/07 01:56:23;;;;;;;6.60;4.57;;;;;;;1.83;67.12;94892.78;5095840;28;20546;-72
2022/01/07 01:58:49;;;;;;;6.45;4.03;;;;;;;1.96;66.66;94890.50;5113748;28;20497;-72
2022/01/07 02:01:15;;;;;;;6.85;4.90;;;;;;;1.87;66.62;94875.56;5095646;28;20028;-72
2022/01/07 02:03:40;;;;;;;6.93;4.70;;;;;;;1.86;66.64;94861.09;5095775;28;20039;-72
2022/01/07 02:06:06;;;;;;;5.75;4.15;;;;;;;2.02;66.46;94882.50;5129739;27;20039;-72
2022/01/07 02:08:31;;;;;;;7.60;5.05;;;;;;;1.90;66.23;94867.72;5113826;28;20031;-72
2022/01/07 02:10:58;;;;;;;9.13;6.00;;;;;;;2.02;65.32;94879.94;5112564;28;20036;-72
2022/01/07 02:13:23;;;;;;;6.18;4.00;;;;;;;2.01;65.84;94891.94;5113682;28;20028;-72
2022/01/07 02:15:49;;;;;;;7.40;4.82;;;;;;;2.10;66.24;94897.53;5112416;28;20039;-72
2022/01/07 02:18:16;;;;;;;6.55;4.38;;;;;;;2.03;65.69;94904.66;5112375;28;20030;-72
2022/01/07 02:20:42;;;;;;;5.55;4.43;;;;;;;2.10;66.30;94906.03;5129428;27;20031;-72
2022/01/07 02:23:07;;;;;;;6.63;4.47;;;;;;;2.21;65.54;94908.91;5112164;28;20055;-72
2022/01/07 02:25:33;;;;;;;7.40;4.97;;;;;;;2.15;65.08;94888.72;5095192;28;20032;-72
2022/01/07 02:27:58;;;;;;;7.35;4.80;;;;;;;2.12;65.59;94906.81;5113431;28;20036;-73
2022/01/07 02:30:26;;;;;;;8.00;4.57;;;;;;;1.77;65.63;94860.63;5113108;28;20044;-72
2022/01/07 02:32:52;;;;;;;6.68;4.68;;;;;;;2.27;64.81;94915.47;5112313;27;20031;-72
2022/01/07 02:35:18;;;;;;;7.57;5.05;;;;;;;2.03;65.68;94909.78;5111866;28;20504;-73
2022/01/07 02:37:43;;;;;;;9.07;5.43;;;;;;;1.99;66.33;94918.53;5111990;28;20034;-72
2022/01/07 02:40:09;;;;;;;9.00;5.53;;;;;;;1.97;66.05;94912.63;5111738;28;20024;-72
2022/01/07 02:42:35;;;;;;;13.45;7.13;;;;;;;1.94;66.88;94928.16;5094827;28;20054;-72
2022/01/07 02:45:00;;;;;;;7.60;4.57;;;;;;;2.11;66.11;94930.75;5111962;28;20084;-72
2022/01/07 02:47:31;;;;;;;7.68;5.28;;;;;;;2.01;66.01;94926.97;5094573;28;20080;-72
2022/01/07 02:50:04;;;;;;;6.70;4.32;;;;;;;2.16;65.68;94938.22;5111745;28;20063;-72
2022/01/07 02:52:29;;;;;;;6.82;4.57;;;;;;;2.20;64.69;94938.00;5112904;28;20165;-72
2022/01/07 02:54:55;;;;;;;7.20;4.68;;;;;;;2.07;65.49;94931.81;5113176;28;20035;-72
2022/01/07 02:57:20;;;;;;;7.35;4.30;;;;;;;1.80;66.45;94921.13;5094547;28;20062;-72
2022/01/07 02:59:45;;;;;;;8.60;5.97;;;;;;;2.11;65.35;94937.63;5094478;28;20032;-72
2022/01/07 03:02:11;;;;;;;9.90;6.47;;;;;;;2.01;65.59;94937.22;5111354;28;20028;-72
2022/01/07 03:04:36;;;;;;;7.25;5.10;;;;;;;2.01;65.37;94934.66;5128672;27;20031;-72
2022/01/07 03:07:02;;;;;;;7.57;5.20;;;;;;;1.87;66.66;94943.00;5111290;28;20055;-72
2022/01/07 03:09:29;;;;;;;6.85;4.50;;;;;;;1.87;65.72;94942.19;5111385;28;20111;-72
2022/01/07 03:11:54;;;;;;;11.23;5.53;;;;;;;1.75;66.95;94948.69;5094458;28;20023;-72
2022/01/07 03:14:20;;;;;;;11.20;6.53;;;;;;;1.77;66.29;94936.63;5111173;28;20044;-72
2022/01/07 03:16:45;;;;;;;8.77;5.43;;;;;;;1.84;66.07;94944.84;5094128;28;20039;-72
2022/01/07 03:19:10;;;;;;;8.68;5.45;;;;;;;1.86;66.48;94948.19;5111110;28;20032;-72
2022/01/07 03:21:36;;;;;;;8.38;5.30;;;;;;;1.90;65.92;94947.97;5111214;28;20020;-72
2022/01/07 03:24:01;;;;;;;7.70;5.10;;;;;;;1.56;66.57;94928.19;5110981;28;20035;-72
2022/01/07 03:26:27;;;;;;;6.05;4.28;;;;;;;1.81;66.08;94952.69;5111011;28;20038;-72
2022/01/07 03:28:52;;;;;;;7.15;4.63;;;;;;;1.84;66.55;94953.41;5112332;28;20036;-72
2022/01/07 03:31:18;;;;;;;7.10;4.50;;;;;;;1.76;66.17;94943.50;5110973;28;20055;-72
2022/01/07 03:33:43;;;;;;;7.75;4.70;;;;;;;1.82;66.38;94954.38;5093813;28;20039;-73
2022/01/07 03:36:08;;;;;;;7.78;4.85;;;;;;;1.86;65.88;94946.44;5112074;28;20417;-72
2022/01/07 03:38:34;;;;;;;8.57;5.40;;;;;;;1.92;65.56;94945.34;5110462;28;20493;-72
2022/01/07 03:40:59;;;;;;;8.00;4.90;;;;;;;2.03;64.97;94953.34;5127910;27;20046;-72
2022/01/07 03:43:25;;;;;;;8.07;4.68;;;;;;;2.00;65.24;94954.31;5110544;28;20039;-72
2022/01/07 03:45:50;;;;;;;8.68;5.90;;;;;;;1.81;66.70;94947.56;5127811;27;20027;-72
2022/01/07 03:48:16;;;;;;;7.05;4.65;;;;;;;1.86;66.55;94966.13;5108042;28;20481;-72
2022/01/07 03:50:41;;;;;;;7.45;4.82;;;;;;;1.79;66.85;94955.34;5110560;28;20036;-72
2022/01/07 03:53:07;;;;;;;6.30;4.35;;;;;;;1.69;66.03;94944.66;5093595;28;20036;-72
2022/01/07 03:55:32;;;;;;;9.18;4.47;;;;;;;1.99;65.97;94972.34;5093366;28;20035;-72
2022/01/07 03:57:58;;;;;;;9.30;4.63;;;;;;;2.11;65.39;94966.63;5093559;28;20491;-72
2022/01/07 04:00:33;;;;;;;7.57;4.80;;;;;;;1.95;65.64;94978.50;5109688;28;20507;-73
2022/01/07 04:03:04;;;;;;;7.40;4.50;;;;;;;1.84;65.45;94961.09;5111736;27;20055;-72
2022/01/07 04:05:29;;;;;;;9.40;5.45;;;;;;;1.83;65.73;94966.25;5110398;28;20023;-72
2022/01/07 04:07:55;;;;;;;7.72;4.93;;;;;;;1.76;66.53;94966.56;5110254;28;20035;-72
2022/01/07 04:10:20;;;;;;;11.60;6.88;;;;;;;1.84;66.31;94968.78;5110256;28;20220;-72
2022/01/07 04:12:46;;;;;;;7.72;5.20;;;;;;;1.95;65.69;94975.94;5092125;28;20020;-72
2022/01/07 04:15:11;;;;;;;9.02;5.70;;;;;;;1.93;66.01;94977.75;5127159;27;20019;-72
2022/01/07 04:17:38;;;;;;;7.70;5.40;;;;;;;1.86;65.98;94963.56;5093129;28;20039;-72
2022/01/07 04:20:04;;;;;;;7.78;5.10;;;;;;;1.93;65.92;94980.31;5093063;28;20036;-72
2022/01/07 04:22:30;;;;;;;11.80;6.30;;;;;;;2.10;64.93;94975.22;5093203;28;20027;-72
2022/01/07 04:24:55;;;;;;;10.32;6.22;;;;;;;2.23;64.43;94994.25;5093280;28;20036;-72
2022/01/07 04:27:20;;;;;;;9.13;4.82;;;;;;;2.14;65.22;94997.25;5093034;28;20026;-72
2022/01/07 04:29:46;;;;;;;9.90;5.90;;;;;;;2.08;65.20;94994.16;5092932;28;20047;-72
2022/01/07 04:32:11;;;;;;;18.33;10.90;;;;;;;1.91;65.52;94982.94;5111463;28;20024;-72
2022/01/07 04:34:37;;;;;;;22.40;14.13;;;;;;;2.01;65.98;95001.31;5093186;28;20061;-72
2022/01/07 04:37:02;;;;;;;18.55;11.52;;;;;;;2.00;65.82;95004.75;5110029;28;20493;-72
2022/01/07 04:39:28;;;;;;;11.02;6.80;;;;;;;1.81;65.58;94978.31;5109894;28;20537;-72
2022/01/07 04:41:53;;;;;;;9.07;5.90;;;;;;;1.83;65.55;94989.31;5093060;28;20035;-72
2022/01/07 04:44:19;;;;;;;10.65;6.32;;;;;;;1.90;66.24;94990.72;5085603;28;20413;-72
2022/01/07 04:46:45;;;;;;;13.05;8.13;;;;;;;2.05;65.76;95004.53;5090721;28;20068;-72
2022/01/07 04:49:10;;;;;;;9.02;6.18;;;;;;;1.89;65.77;95001.84;5110556;28;20071;-72
2022/01/07 04:51:36;;;;;;;9.55;6.10;;;;;;;1.81;66.42;94991.13;5074940;28;20061;-72
2022/01/07 04:54:01;;;;;;;10.38;7.35;;;;;;;1.90;66.18;95003.53;5075071;28;20039;-72
2022/01/07 04:56:27;;;;;;;9.57;5.43;;;;;;;2.06;65.63;95008.75;5092281;28;20026;-72
2022/01/07 04:58:52;;;;;;;11.25;7.72;;;;;;;2.06;65.09;95011.31;5109676;28;20035;-72
2022/01/07 05:01:18;;;;;;;12.85;7.63;;;;;;;2.08;65.59;95014.66;5072913;28;20482;-72
2022/01/07 05:03:43;;;;;;;15.10;9.20;;;;;;;2.11;65.93;95007.63;5074780;28;20036;-72
2022/01/07 05:06:44;;;;;;;10.00;6.38;;;;;;;2.11;65.53;94999.94;5125574;28;20032;-72
2022/01/07 05:08:54;;;;;;;9.10;6.68;;;;;;;2.30;65.22;95014.47;5108875;28;20146;-72
2022/01/07 05:11:19;;;;;;;9.90;5.97;;;;;;;2.06;65.76;95016.44;5093559;28;20499;-72
2022/01/07 05:13:45;;;;;;;8.65;5.63;;;;;;;2.07;65.93;95016.38;5112104;28;20409;-72
2022/01/07 05:16:10;;;;;;;10.25;7.07;;;;;;;2.13;65.19;95020.41;5111160;28;20497;-72
2022/01/07 05:18:35;;;;;;;9.32;6.45;;;;;;;1.92;65.55;94983.75;5094469;28;20466;-72
2022/01/07 05:21:01;;;;;;;11.60;7.57;;;;;;;1.97;66.14;95020.25;5112066;28;20497;-72
2022/01/07 05:23:26;;;;;;;11.80;7.88;;;;;;;1.99;66.42;95021.03;5112436;28;20036;-72
2022/01/07 05:25:52;;;;;;;13.35;7.45;;;;;;;1.92;66.60;95017.94;5095922;28;20028;-72
2022/01/07 05:28:17;;;;;;;10.90;7.28;;;;;;;1.85;66.80;95013.16;5111775;28;20043;-73
2022/01/07 05:30:42;;;;;;;12.65;6.68;;;;;;;1.97;66.37;95015.97;5112594;28;20048;-73
2022/01/07 05:33:08;;;;;;;12.43;6.90;;;;;;;1.90;66.87;95024.03;5076306;28;20032;-73
2022/01/07 05:35:33;;;;;;;10.38;6.57;;;;;;;1.91;65.98;95010.31;5094794;28;20023;-73
2022/01/07 05:37:59;;;;;;;9.93;6.90;;;;;;;2.03;65.73;95032.78;5112588;28;20035;-73
2022/01/07 05:40:24;;;;;;;11.68;7.25;;;;;;;1.97;66.40;95030.50;5095022;28;20027;-73
2022/01/07 05:42:50;;;;;;;11.75;6.65;;;;;;;1.97;66.98;95026.22;5111804;28;20028;-72
2022/01/07 05:45:15;;;;;;;13.95;7.38;;;;;;;2.05;65.66;95018.19;5112126;28;20039;-73
2022/01/07 05:47:41;;;;;;;11.25;7.38;;;;;;;2.04;66.39;95026.78;5112120;28;20489;-73
2022/01/07 05:50:07;;;;;;;10.52;7.45;;;;;;;2.08;66.61;95025.72;5109282;28;20030;-73
2022/01/07 05:52:32;;;;;;;12.65;8.27;;;;;;;2.06;66.54;95030.09;5078548;28;20035;-72
2022/01/07 05:54:58;;;;;;;10.35;6.95;;;;;;;1.93;66.42;95011.91;5094961;28;20558;-72
2022/01/07 05:57:23;;;;;;;11.40;6.80;;;;;;;1.93;65.94;95031.56;5111764;28;20019;-73
2022/01/07 05:59:48;;;;;;;9.65;6.78;;;;;;;2.00;66.13;95032.94;5112191;28;20100;-72
2022/01/07 06:02:14;;;;;;;9.68;7.10;;;;;;;2.02;66.60;95041.38;5078121;28;20024;-73
2022/01/07 06:04:39;;;;;;;10.75;6.55;;;;;;;1.95;66.78;95032.31;5114040;27;20047;-73
2022/01/07 06:07:05;;;;;;;10.02;6.40;;;;;;;1.96;66.66;95034.81;5112684;27;20027;-73
2022/01/07 06:09:30;;;;;;;10.75;6.63;;;;;;;1.89;66.49;95051.34;5114760;27;20043;-73
2022/01/07 06:11:56;;;;;;;12.50;6.28;;;;;;;1.83;66.71;95049.06;5105025;28;20440;-73
2022/01/07 06:14:23;;;;;;;12.90;7.22;;;;;;;1.53;67.53;95056.38;5094354;28;20093;-73
2022/01/07 06:16:48;;;;;;;10.77;6.65;;;;;;;1.58;67.55;95051.88;5111760;28;20024;-73
2022/01/07 06:19:14;;;;;;;11.50;7.55;;;;;;;1.70;67.64;95048.81;5130785;27;20058;-73
2022/01/07 06:21:39;;;;;;;12.48;7.07;;;;;;;1.86;67.73;95060.91;5129999;27;20034;-74
2022/01/07 06:24:05;;;;;;;10.00;7.32;;;;;;;2.08;66.41;95059.03;5109434;28;20031;-73
2022/01/07 06:26:31;;;;;;;12.35;8.05;;;;;;;2.12;65.88;95050.31;5113499;27;20517;-73
2022/01/07 06:28:57;;;;;;;13.95;8.70;;;;;;;2.09;66.38;95065.00;5118672;27;20049;-73
2022/01/07 06:31:22;;;;;;;13.23;8.15;;;;;;;1.93;66.60;95059.75;5110082;27;20035;-72
2022/01/07 06:33:48;;;;;;;13.90;8.68;;;;;;;1.95;66.93;95069.03;5114936;27;20459;-73
2022/01/07 06:36:13;;;;;;;10.40;7.18;;;;;;;2.08;66.24;95065.91;5107983;27;20035;-73
2022/01/07 06:38:39;;;;;;;9.85;6.90;;;;;;;2.00;67.41;95076.50;5110388;27;20493;-73
2022/01/07 06:41:04;;;;;;;11.10;7.57;;;;;;;2.06;66.52;95070.25;5109219;28;20031;-73
2022/01/07 06:43:29;;;;;;;13.07;8.55;;;;;;;2.14;66.70;95069.00;5094189;28;20035;-73
2022/01/07 06:45:55;;;;;;;16.20;9.05;;;;;;;2.14;67.34;95069.00;5113216;27;20080;-73
2022/01/07 06:48:20;;;;;;;13.77;8.13;;;;;;;2.28;65.81;95072.69;5100252;27;20060;-73
2022/01/07 06:50:46;;;;;;;11.82;7.75;;;;;;;2.16;65.82;95056.13;5132752;27;20019;-72
2022/01/07 06:53:11;;;;;;;14.07;7.95;;;;;;;2.18;66.79;95069.72;5110259;28;20445;-72
2022/01/07 06:55:37;;;;;;;12.65;7.95;;;;;;;2.28;65.96;95070.13;5122495;27;20504;-73
2022/01/07 06:58:02;;;;;;;9.77;7.07;;;;;;;2.29;66.04;95076.91;5131759;27;20309;-73
2022/01/07 07:00:28;;;;;;;11.95;7.40;;;;;;;2.07;66.46;95075.34;5112594;27;20112;-73
2022/01/07 07:02:53;;;;;;;15.48;8.00;;;;;;;2.18;66.40;95072.28;5093151;28;20550;-72
2022/01/07 07:05:19;;;;;;;12.70;8.70;;;;;;;2.23;65.90;95070.34;5111494;27;20034;-73
2022/01/07 07:07:44;;;;;;;14.13;8.48;;;;;;;2.21;65.84;95065.28;5131357;27;20027;-72
2022/01/07 07:10:09;;;;;;;14.57;8.63;;;;;;;2.35;65.59;95067.19;5119674;27;20043;-72
2022/01/07 07:12:35;;;;;;;17.77;10.65;;;;;;;2.31;65.66;95075.09;5109919;28;20028;-72
2022/01/07 07:15:00;;;;;;;27.27;13.23;;;;;;;2.37;65.65;95078.22;5111805;27;20042;-73
2022/01/07 07:17:26;;;;;;;14.70;9.52;;;;;;;2.37;66.12;95074.84;5113722;27;20057;-73
2022/01/07 07:19:51;;;;;;;13.73;8.15;;;;;;;2.58;64.84;95072.97;5130680;27;20531;-73
2022/01/07 07:22:17;;;;;;;16.20;9.35;;;;;;;2.41;65.58;95073.78;5130563;27;20023;-73
2022/01/07 07:24:42;;;;;;;15.85;9.57;;;;;;;2.51;65.33;95080.16;5086266;28;20047;-73
2022/01/07 07:27:08;;;;;;;15.25;9.70;;;;;;;2.47;65.37;95082.00;5132068;27;20026;-73
2022/01/07 07:29:33;;;;;;;12.57;8.98;;;;;;;2.61;65.00;95077.97;5126728;27;20036;-73
2022/01/07 07:32:03;;;;;;;15.93;10.30;;;;;;;2.62;64.56;95083.03;5094931;28;20518;-73
2022/01/07 07:36:57;;;;;;;16.92;10.50;;;;;;;2.88;63.52;95065.56;5112000;28;20100;-73
2022/01/07 07:39:22;;;;;;;32.70;17.98;;;;;;;2.94;63.61;95072.13;5076904;28;20489;-73
2022/01/07 07:41:49;;;;;;;17.52;11.57;;;;;;;2.82;63.77;95081.25;5113815;27;20020;-73
2022/01/07 07:44:14;;;;;;;28.35;15.20;;;;;;;3.00;63.94;95074.38;5128586;27;20036;-73
2022/01/07 07:46:40;;;;;;;30.23;19.80;;;;;;;3.27;62.95;95079.91;5131323;27;20031;-73
2022/01/07 07:49:06;;;;;;;22.33;13.90;;;;;;;3.32;63.11;95078.75;5111620;27;20031;-73
2022/01/07 07:51:31;;;;;;;16.15;10.48;;;;;;;3.44;62.22;95077.31;5095739;28;20386;-73
2022/01/07 07:53:57;;;;;;;21.30;13.18;;;;;;;3.47;62.44;95087.41;5123235;27;20024;-73
2022/01/07 07:56:22;;;;;;;25.23;12.70;;;;;;;3.46;61.45;95078.06;5118699;27;20046;-73
2022/01/07 07:58:48;;;;;;;72.78;25.73;;;;;;;3.54;61.43;95088.78;5094346;28;20028;-73
2022/01/07 08:01:13;;;;;;;46.30;21.02;;;;;;;3.50;61.48;95087.25;5123246;27;20106;-73
2022/01/07 08:03:40;;;;;;;41.13;18.50;;;;;;;3.54;61.70;95086.22;5099031;27;20404;-73
2022/01/07 08:06:05;;;;;;;29.27;14.55;;;;;;;3.48;61.79;95091.66;5110148;28;20038;-73
2022/01/07 08:08:34;;;;;;;211.18;78.95;;;;;;;3.54;61.68;95090.53;5076247;28;20040;-73
2022/01/07 08:11:02;;;;;;;73.10;31.52;;;;;;;3.48;61.86;95078.81;5126798;27;20027;-74
2022/01/07 08:13:29;;;;;;;24.02;14.85;;;;;;;3.43;62.07;95083.34;5101906;28;20031;-73
2022/01/07 08:15:59;;;;;;;20.42;12.10;;;;;;;3.61;61.65;95093.59;5094455;28;20398;-73
2022/01/07 08:18:35;;;;;;;26.40;15.88;;;;;;;3.65;62.26;95082.25;5111098;28;20104;-73
2022/01/07 08:21:02;;;;;;;34.72;15.98;;;;;;;3.72;61.03;95084.44;5093316;28;20030;-73
2022/01/07 08:23:28;;;;;;;42.15;18.98;;;;;;;3.64;61.49;95060.88;5094188;27;20122;-73
2022/01/07 08:25:53;;;;;;;32.40;15.60;;;;;;;3.78;61.16;95076.41;5128345;27;20307;-73
2022/01/07 08:28:20;;;;;;;19.50;10.75;;;;;;;3.93;60.69;95073.97;5130646;27;20035;-73
2022/01/07 08:36:20;;;;;;;29.67;15.10;;;;;;;3.86;61.00;95063.16;5130712;28;20080;-73
2022/01/07 08:38:45;;;;;;;45.90;22.98;;;;;;;3.87;61.37;95069.94;5113512;28;20404;-73
2022/01/07 08:41:11;;;;;;;27.58;14.80;;;;;;;3.86;60.52;95057.19;5113378;28;20023;-73
2022/01/07 08:43:37;;;;;;;25.63;13.75;;;;;;;3.90;60.53;95067.25;5111292;28;20027;-72
2022/01/07 08:46:04;;;;;;;17.63;11.35;;;;;;;3.78;60.07;95053.28;5096505;27;20039;-72
2022/01/07 08:48:29;;;;;;;20.80;11.75;;;;;;;3.75;61.00;95050.03;5133121;27;20100;-73
2022/01/07 08:50:55;;;;;;;22.17;13.32;;;;;;;3.81;61.06;95055.66;5117567;27;20074;-72
2022/01/07 08:53:20;;;;;;;25.20;15.07;;;;;;;3.85;60.93;95058.94;5100386;27;20028;-73
2022/01/07 08:55:46;;;;;;;19.02;12.43;;;;;;;3.77;60.79;95067.03;5134423;27;20029;-73
2022/01/07 08:58:12;;;;;;;20.75;12.70;;;;;;;3.79;60.66;95054.13;5135651;27;20035;-72
2022/01/07 09:00:37;;;;;;;18.98;13.30;;;;;;;3.81;60.95;95055.66;5117262;27;20027;-73
2022/01/07 09:03:03;;;;;;;24.83;15.05;;;;;;;3.87;60.25;95051.94;5135714;27;20080;-73
2022/01/07 09:05:28;;;;;;;21.80;12.75;;;;;;;3.92;60.52;95049.16;5134350;27;20405;-73
2022/01/07 09:07:54;;;;;;;21.13;13.52;;;;;;;3.92;60.31;95049.97;5134362;27;20440;-73
2022/01/07 09:10:19;;;;;;;26.05;13.20;;;;;;;3.97;60.12;95053.13;5134253;27;20031;-73
2022/01/07 09:12:46;;;;;;;19.67;12.05;;;;;;;3.86;60.35;95052.03;5117111;27;20030;-73
2022/01/07 09:15:12;;;;;;;20.23;11.48;;;;;;;3.91;59.93;95042.34;5134088;27;20023;-73
2022/01/07 09:17:38;;;;;;;21.40;12.40;;;;;;;3.92;60.47;95051.72;5135343;27;20030;-72
2022/01/07 09:20:05;;;;;;;15.40;10.98;;;;;;;3.96;59.97;95043.78;5133965;27;20489;-73
2022/01/07 09:22:30;;;;;;;23.60;14.15;;;;;;;3.89;60.28;95044.16;5134035;27;20030;-73
2022/01/07 09:24:56;;;;;;;16.77;11.40;;;;;;;3.99;59.77;95038.47;5134088;27;20027;-73
2022/01/07 09:27:21;;;;;;;18.17;10.75;;;;;;;3.97;59.82;95037.72;5099790;27;20027;-73
2022/01/07 09:29:47;;;;;;;20.23;11.35;;;;;;;3.85;60.37;95035.81;5116585;27;20521;-73
2022/01/07 09:32:13;;;;;;;14.18;9.50;;;;;;;3.95;60.17;95043.84;5116668;27;20088;-73
2022/01/07 09:34:38;;;;;;;17.20;11.20;;;;;;;3.96;60.18;95030.91;5133991;27;20161;-72
2022/01/07 09:37:04;;;;;;;14.90;9.75;;;;;;;3.96;60.30;95027.53;5116609;27;20027;-73
2022/01/07 09:39:30;;;;;;;15.90;10.60;;;;;;;4.02;60.10;95028.00;5133648;27;20031;-73
2022/01/07 09:41:55;;;;;;;19.45;10.18;;;;;;;4.10;59.74;95022.47;5133623;27;20042;-73
2022/01/07 09:44:21;;;;;;;14.80;9.38;;;;;;;3.87;59.24;94999.72;5116519;27;20035;-73
2022/01/07 09:46:46;;;;;;;15.90;9.43;;;;;;;3.65;60.46;95013.72;5116501;27;20019;-73
2022/01/07 09:49:12;;;;;;;13.32;9.10;;;;;;;3.80;60.26;95005.19;5116462;27;20031;-73
2022/01/07 09:51:38;;;;;;;12.38;7.82;;;;;;;4.05;59.50;95009.03;5116443;27;20032;-73
2022/01/07 09:54:04;;;;;;;11.55;6.82;;;;;;;3.69;59.49;95011.81;5116445;27;20039;-73
2022/01/07 09:56:29;;;;;;;13.30;8.07;;;;;;;3.56;59.67;95004.75;5116301;27;20035;-73
2022/01/07 09:58:55;;;;;;;14.85;8.63;;;;;;;3.44;59.97;95000.25;5133649;27;20462;-73
2022/01/07 10:01:23;;;;;;;13.77;7.90;;;;;;;3.48;60.55;94996.63;5133312;27;20549;-72
2022/01/07 10:03:48;;;;;;;11.93;7.35;;;;;;;3.72;60.09;94985.97;5133312;27;20128;-73
2022/01/07 10:06:18;;;;;;;17.45;11.32;;;;;;;4.04;59.53;94999.66;5134446;27;20114;-73
2022/01/07 10:08:46;;;;;;;17.33;12.20;;;;;;;4.09;59.42;94999.41;5133206;27;20478;-73
2022/01/07 10:11:18;;;;;;;17.25;10.88;;;;;;;4.17;59.17;94997.25;5133117;27;20031;-72
2022/01/07 10:13:44;;;;;;;13.20;9.32;;;;;;;4.30;58.56;95008.53;5116091;27;20561;-73
2022/01/07 10:16:14;;;;;;;16.15;9.75;;;;;;;4.34;58.29;95004.84;5133013;27;20030;-73
2022/01/07 10:18:39;;;;;;;146.85;80.28;;;;;;;4.05;58.54;94985.06;5132908;27;20043;-73
2022/01/07 10:21:09;;;;;;;84.93;50.70;;;;;;;4.08;59.07;95001.16;5115772;27;20532;-72
2022/01/07 10:23:34;;;;;;;37.33;22.65;;;;;;;4.20;58.93;95002.22;5098761;27;20140;-72
2022/01/07 10:25:59;;;;;;;28.90;17.15;;;;;;;4.20;58.68;95003.03;5132927;27;20019;-73
2022/01/07 10:28:29;;;;;;;25.08;14.30;;;;;;;4.30;58.37;94989.69;5132708;27;20512;-72
2022/01/07 10:30:55;;;;;;;42.90;23.42;;;;;;;4.38;58.06;94987.53;5132709;27;20104;-73
2022/01/07 10:33:22;;;;;;;20.15;10.43;;;;;;;4.31;58.65;94979.31;5115681;27;20096;-72
2022/01/07 10:36:09;;;;;;;15.25;8.73;;;;;;;4.45;58.41;94984.50;5098608;27;20501;-72
2022/01/07 10:38:36;;;;;;;12.77;7.22;;;;;;;4.44;57.87;94970.00;5133694;27;20038;-73
2022/01/07 10:41:01;;;;;;;22.05;13.70;;;;;;;4.52;58.42;94974.72;5115456;27;20031;-73
2022/01/07 10:43:36;;;;;;;13.20;8.68;;;;;;;4.59;57.15;94968.28;5132319;27;20027;-72
2022/01/07 10:46:15;;;;;;;14.38;7.70;;;;;;;4.55;57.77;94971.13;5133663;27;20110;-72
2022/01/07 10:48:44;;;;;;;13.27;8.38;;;;;;;4.55;57.32;94958.28;5133763;27;20473;-73
2022/01/07 10:51:10;;;;;;;13.18;8.25;;;;;;;4.52;57.18;94966.16;5115487;27;20027;-72
2022/01/07 10:53:35;;;;;;;15.45;7.88;;;;;;;4.34;57.42;94963.69;5133601;27;20516;-73
2022/01/07 10:56:02;;;;;;;12.57;7.82;;;;;;;4.57;57.40;94959.84;5132257;27;20031;-74
2022/01/07 10:58:28;;;;;;;15.85;8.63;;;;;;;4.54;57.37;94960.03;5133312;27;20223;-73
2022/01/07 11:00:53;;;;;;;14.65;9.93;;;;;;;4.60;57.47;94953.69;5132032;27;20438;-73
2022/01/07 11:03:19;;;;;;;14.30;9.73;;;;;;;4.68;57.04;94961.78;5132103;27;20034;-73
2022/01/07 11:05:44;;;;;;;13.75;8.98;;;;;;;4.75;56.75;94957.94;5133223;27;20019;-73
2022/01/07 11:08:11;;;;;;;29.25;17.60;;;;;;;4.68;56.37;94954.06;5133203;27;20047;-73
2022/01/07 11:10:36;;;;;;;27.00;15.70;;;;;;;4.54;56.90;94960.03;5097712;27;20485;-73
2022/01/07 11:13:02;;;;;;;21.95;13.27;;;;;;;4.66;57.16;94948.19;5098058;27;20036;-72
2022/01/07 11:15:27;;;;;;;20.50;11.68;;;;;;;4.68;56.65;94936.03;5114630;27;20027;-73
2022/01/07 11:17:53;;;;;;;26.45;15.05;;;;;;;4.82;56.03;94951.53;5097625;27;20477;-73
2022/01/07 11:20:24;;;;;;;14.90;9.57;;;;;;;4.76;56.17;94933.84;5114532;27;20034;-73
2022/01/07 11:22:49;;;;;;;13.05;7.65;;;;;;;4.87;55.59;94944.34;5115495;27;20035;-73
2022/01/07 11:25:15;;;;;;;19.15;13.07;;;;;;;4.91;56.30;94948.44;5114412;27;20158;-73
2022/01/07 11:27:52;;;;;;;19.00;10.93;;;;;;;4.86;55.41;94935.00;5114666;27;20059;-73
2022/01/07 11:30:18;;;;;;;15.40;8.18;;;;;;;4.95;54.22;94931.03;5114200;27;20049;-73
2022/01/07 11:32:46;;;;;;;12.50;7.50;;;;;;;4.99;53.95;94931.72;5097450;27;20035;-73
2022/01/07 11:35:17;;;;;;;14.15;8.50;;;;;;;4.96;54.80;94935.28;5131417;27;20038;-73
2022/01/07 11:37:47;;;;;;;12.45;7.95;;;;;;;4.97;54.50;94928.41;5132653;27;20027;-73